sensor_id;sensor_type;location;lat;lon;timestamp;P1;durP1;ratioP1;P2;durP2;ratioP2
48795;SDS011;34607;48.520;-1.330;2022-11-20T00:01:29;12.25;;;7.53;;
48795;SDS011;34607;48.520;-1.330;2022-11-20T00:03:56;13.02;;;7.57;;
48795;SDS011;34607;48.520;-1.330;2022-11-20T00:06:24;11.25;;;7.20;;
48795;SDS011;34607;48.520;-1.330;2022-11-20T00:08:53;10.82;;;7.45;;
48795;SDS011;34607;48.520;-1.330;2022-11-20T00:11:22;11.68;;;7.22;;
48795;SDS011;34607;48.520;-1.330;2022-11-20T00:13:50;10.85;;;7.13;;
48795;SDS011;34607;48.520;-1.330;2022-11-20T00:16:19;11.00;;;6.70;;
48795;SDS011;34607;48.520;-1.330;2022-11-20T00:18:49;11.35;;;6.93;;
48795;SDS011;34607;48.520;-1.330;2022-11-20T00:21:17;12.13;;;6.72;;
48795;SDS011;34607;48.520;-1.330;2022-11-20T00:23:45;14.27;;;7.78;;
48795;SDS011;34607;48.520;-1.330;2022-11-20T00:26:13;9.88;;;7.28;;
48795;SDS011;34607;48.520;-1.330;2022-11-20T00:28:42;11.70;;;7.38;;
48795;SDS011;34607;48.520;-1.330;2022-11-20T00:31:10;11.20;;;7.28;;
48795;SDS011;34607;48.520;-1.330;2022-11-20T00:33:38;11.73;;;6.57;;
48795;SDS011;34607;48.520;-1.330;2022-11-20T00:36:08;12.55;;;6.43;;
48795;SDS011;34607;48.520;-1.330;2022-11-20T00:38:37;14.50;;;6.88;;
48795;SDS011;34607;48.520;-1.330;2022-11-20T00:41:05;12.80;;;6.43;;
48795;SDS011;34607;48.520;-1.330;2022-11-20T00:43:33;12.32;;;6.63;;
48795;SDS011;34607;48.520;-1.330;2022-11-20T00:46:02;11.32;;;5.93;;
48795;SDS011;34607;48.520;-1.330;2022-11-20T00:48:30;14.05;;;6.72;;
48795;SDS011;34607;48.520;-1.330;2022-11-20T00:50:58;7.63;;;5.20;;
48795;SDS011;34607;48.520;-1.330;2022-11-20T00:53:27;14.25;;;7.35;;
48795;SDS011;34607;48.520;-1.330;2022-11-20T00:55:55;9.75;;;5.85;;
48795;SDS011;34607;48.520;-1.330;2022-11-20T00:58:24;8.20;;;5.93;;
48795;SDS011;34607;48.520;-1.330;2022-11-20T01:00:59;9.00;;;5.15;;
48795;SDS011;34607;48.520;-1.330;2022-11-20T01:03:26;9.15;;;5.55;;
48795;SDS011;34607;48.520;-1.330;2022-11-20T01:05:54;8.80;;;5.22;;
48795;SDS011;34607;48.520;-1.330;2022-11-20T01:08:25;8.05;;;5.50;;
48795;SDS011;34607;48.520;-1.330;2022-11-20T01:10:59;9.73;;;6.03;;
48795;SDS011;34607;48.520;-1.330;2022-11-20T01:13:27;8.32;;;4.90;;
48795;SDS011;34607;48.520;-1.330;2022-11-20T01:16:05;12.50;;;4.90;;
48795;SDS011;34607;48.520;-1.330;2022-11-20T01:18:33;7.43;;;5.05;;
48795;SDS011;34607;48.520;-1.330;2022-11-20T01:21:01;8.70;;;5.32;;
48795;SDS011;34607;48.520;-1.330;2022-11-20T01:23:33;7.53;;;5.53;;
48795;SDS011;34607;48.520;-1.330;2022-11-20T01:26:03;6.70;;;5.20;;
48795;SDS011;34607;48.520;-1.330;2022-11-20T01:28:32;9.57;;;5.20;;
48795;SDS011;34607;48.520;-1.330;2022-11-20T01:30:59;9.70;;;5.32;;
48795;SDS011;34607;48.520;-1.330;2022-11-20T01:33:27;8.68;;;5.55;;
48795;SDS011;34607;48.520;-1.330;2022-11-20T01:36:02;10.38;;;6.13;;
48795;SDS011;34607;48.520;-1.330;2022-11-20T01:38:30;8.50;;;5.07;;
48795;SDS011;34607;48.520;-1.330;2022-11-20T01:40:57;8.98;;;5.72;;
48795;SDS011;34607;48.520;-1.330;2022-11-20T01:43:26;9.27;;;5.85;;
48795;SDS011;34607;48.520;-1.330;2022-11-20T01:46:04;10.85;;;5.85;;
48795;SDS011;34607;48.520;-1.330;2022-11-20T01:48:40;10.88;;;5.90;;
48795;SDS011;34607;48.520;-1.330;2022-11-20T01:51:12;11.13;;;5.22;;
48795;SDS011;34607;48.520;-1.330;2022-11-20T01:53:43;6.63;;;5.07;;
48795;SDS011;34607;48.520;-1.330;2022-11-20T01:56:12;12.60;;;5.53;;
48795;SDS011;34607;48.520;-1.330;2022-11-20T01:58:43;9.23;;;5.63;;
48795;SDS011;34607;48.520;-1.330;2022-11-20T02:01:14;8.85;;;5.25;;
48795;SDS011;34607;48.520;-1.330;2022-11-20T02:03:41;7.78;;;5.15;;
48795;SDS011;34607;48.520;-1.330;2022-11-20T02:06:11;8.43;;;5.57;;
48795;SDS011;34607;48.520;-1.330;2022-11-20T02:08:43;8.82;;;4.95;;
48795;SDS011;34607;48.520;-1.330;2022-11-20T02:11:10;7.85;;;5.00;;
48795;SDS011;34607;48.520;-1.330;2022-11-20T02:13:39;9.85;;;5.43;;
48795;SDS011;34607;48.520;-1.330;2022-11-20T02:16:10;12.68;;;4.93;;
48795;SDS011;34607;48.520;-1.330;2022-11-20T02:18:39;8.52;;;4.90;;
48795;SDS011;34607;48.520;-1.330;2022-11-20T02:21:09;10.65;;;5.60;;
48795;SDS011;34607;48.520;-1.330;2022-11-20T02:24:02;10.55;;;5.93;;
48795;SDS011;34607;48.520;-1.330;2022-11-20T02:26:33;9.05;;;4.10;;
48795;SDS011;34607;48.520;-1.330;2022-11-20T02:29:04;8.65;;;5.32;;
48795;SDS011;34607;48.520;-1.330;2022-11-20T02:31:38;11.90;;;5.32;;
48795;SDS011;34607;48.520;-1.330;2022-11-20T02:34:08;8.95;;;4.82;;
48795;SDS011;34607;48.520;-1.330;2022-11-20T02:36:35;11.05;;;5.30;;
48795;SDS011;34607;48.520;-1.330;2022-11-20T02:39:07;10.68;;;5.85;;
48795;SDS011;34607;48.520;-1.330;2022-11-20T02:41:36;8.75;;;5.80;;
48795;SDS011;34607;48.520;-1.330;2022-11-20T02:44:04;8.05;;;5.15;;
48795;SDS011;34607;48.520;-1.330;2022-11-20T02:46:32;10.45;;;4.78;;
48795;SDS011;34607;48.520;-1.330;2022-11-20T02:49:00;10.40;;;4.75;;
48795;SDS011;34607;48.520;-1.330;2022-11-20T02:51:28;8.52;;;4.95;;
48795;SDS011;34607;48.520;-1.330;2022-11-20T02:53:55;7.40;;;4.90;;
48795;SDS011;34607;48.520;-1.330;2022-11-20T02:56:24;11.90;;;5.18;;
48795;SDS011;34607;48.520;-1.330;2022-11-20T02:58:51;8.18;;;4.25;;
48795;SDS011;34607;48.520;-1.330;2022-11-20T03:01:19;6.75;;;4.50;;
48795;SDS011;34607;48.520;-1.330;2022-11-20T03:03:46;12.75;;;5.28;;
48795;SDS011;34607;48.520;-1.330;2022-11-20T03:06:14;10.60;;;4.88;;
48795;SDS011;34607;48.520;-1.330;2022-11-20T03:08:41;12.05;;;5.32;;
48795;SDS011;34607;48.520;-1.330;2022-11-20T03:11:09;9.60;;;4.65;;
48795;SDS011;34607;48.520;-1.330;2022-11-20T03:13:37;11.05;;;4.57;;
48795;SDS011;34607;48.520;-1.330;2022-11-20T03:16:06;12.52;;;5.68;;
48795;SDS011;34607;48.520;-1.330;2022-11-20T03:18:34;11.52;;;4.55;;
48795;SDS011;34607;48.520;-1.330;2022-11-20T03:21:01;9.35;;;4.65;;
48795;SDS011;34607;48.520;-1.330;2022-11-20T03:23:29;7.13;;;4.22;;
48795;SDS011;34607;48.520;-1.330;2022-11-20T03:26:06;8.82;;;4.53;;
48795;SDS011;34607;48.520;-1.330;2022-11-20T03:28:39;5.45;;;4.40;;
48795;SDS011;34607;48.520;-1.330;2022-11-20T03:31:07;7.70;;;4.53;;
48795;SDS011;34607;48.520;-1.330;2022-11-20T03:33:36;6.97;;;4.13;;
48795;SDS011;34607;48.520;-1.330;2022-11-20T03:36:04;7.03;;;4.30;;
48795;SDS011;34607;48.520;-1.330;2022-11-20T03:38:33;9.45;;;4.60;;
48795;SDS011;34607;48.520;-1.330;2022-11-20T03:41:01;6.88;;;3.90;;
48795;SDS011;34607;48.520;-1.330;2022-11-20T03:43:29;7.75;;;4.07;;
48795;SDS011;34607;48.520;-1.330;2022-11-20T03:45:57;9.73;;;4.07;;
48795;SDS011;34607;48.520;-1.330;2022-11-20T03:48:25;8.00;;;4.13;;
48795;SDS011;34607;48.520;-1.330;2022-11-20T03:50:52;6.00;;;3.72;;
48795;SDS011;34607;48.520;-1.330;2022-11-20T03:53:32;7.22;;;4.00;;
48795;SDS011;34607;48.520;-1.330;2022-11-20T03:55:59;8.07;;;4.22;;
48795;SDS011;34607;48.520;-1.330;2022-11-20T03:58:26;4.97;;;3.85;;
48795;SDS011;34607;48.520;-1.330;2022-11-20T04:00:53;7.85;;;4.03;;
48795;SDS011;34607;48.520;-1.330;2022-11-20T04:03:21;10.13;;;3.90;;
48795;SDS011;34607;48.520;-1.330;2022-11-20T04:05:49;6.93;;;3.75;;
48795;SDS011;34607;48.520;-1.330;2022-11-20T04:08:16;7.35;;;3.67;;
48795;SDS011;34607;48.520;-1.330;2022-11-20T04:10:43;11.25;;;4.30;;
48795;SDS011;34607;48.520;-1.330;2022-11-20T04:13:10;7.05;;;4.43;;
48795;SDS011;34607;48.520;-1.330;2022-11-20T04:15:37;10.20;;;4.43;;
48795;SDS011;34607;48.520;-1.330;2022-11-20T04:18:04;9.73;;;5.32;;
48795;SDS011;34607;48.520;-1.330;2022-11-20T04:20:32;7.95;;;5.03;;
48795;SDS011;34607;48.520;-1.330;2022-11-20T04:22:59;8.50;;;4.50;;
48795;SDS011;34607;48.520;-1.330;2022-11-20T04:25:26;7.13;;;4.68;;
48795;SDS011;34607;48.520;-1.330;2022-11-20T04:27:54;7.72;;;5.97;;
48795;SDS011;34607;48.520;-1.330;2022-11-20T04:30:21;6.80;;;5.10;;
48795;SDS011;34607;48.520;-1.330;2022-11-20T04:32:48;9.23;;;5.15;;
48795;SDS011;34607;48.520;-1.330;2022-11-20T04:35:15;7.57;;;6.13;;
48795;SDS011;34607;48.520;-1.330;2022-11-20T04:37:43;7.50;;;5.60;;
48795;SDS011;34607;48.520;-1.330;2022-11-20T04:40:11;7.80;;;5.97;;
48795;SDS011;34607;48.520;-1.330;2022-11-20T04:42:38;8.18;;;6.15;;
48795;SDS011;34607;48.520;-1.330;2022-11-20T04:45:06;9.02;;;5.82;;
48795;SDS011;34607;48.520;-1.330;2022-11-20T04:47:33;7.43;;;6.30;;
48795;SDS011;34607;48.520;-1.330;2022-11-20T04:50:00;10.55;;;6.45;;
48795;SDS011;34607;48.520;-1.330;2022-11-20T04:52:27;7.55;;;6.40;;
48795;SDS011;34607;48.520;-1.330;2022-11-20T04:54:55;9.15;;;7.22;;
48795;SDS011;34607;48.520;-1.330;2022-11-20T04:57:22;9.80;;;6.70;;
48795;SDS011;34607;48.520;-1.330;2022-11-20T04:59:50;8.32;;;7.43;;
48795;SDS011;34607;48.520;-1.330;2022-11-20T05:02:16;11.02;;;7.82;;
48795;SDS011;34607;48.520;-1.330;2022-11-20T05:04:44;9.90;;;7.35;;
48795;SDS011;34607;48.520;-1.330;2022-11-20T05:07:11;11.80;;;8.45;;
48795;SDS011;34607;48.520;-1.330;2022-11-20T05:09:38;8.30;;;7.35;;
48795;SDS011;34607;48.520;-1.330;2022-11-20T05:12:08;11.35;;;8.30;;
48795;SDS011;34607;48.520;-1.330;2022-11-20T05:14:35;12.43;;;9.18;;
48795;SDS011;34607;48.520;-1.330;2022-11-20T05:17:02;11.70;;;8.60;;
48795;SDS011;34607;48.520;-1.330;2022-11-20T05:19:29;13.65;;;8.65;;
48795;SDS011;34607;48.520;-1.330;2022-11-20T05:21:56;13.23;;;9.30;;
48795;SDS011;34607;48.520;-1.330;2022-11-20T05:24:23;11.48;;;9.57;;
48795;SDS011;34607;48.520;-1.330;2022-11-20T05:26:50;10.68;;;9.55;;
48795;SDS011;34607;48.520;-1.330;2022-11-20T05:29:19;13.10;;;9.45;;
48795;SDS011;34607;48.520;-1.330;2022-11-20T05:31:46;13.35;;;8.80;;
48795;SDS011;34607;48.520;-1.330;2022-11-20T05:34:13;13.32;;;9.13;;
48795;SDS011;34607;48.520;-1.330;2022-11-20T05:36:40;10.27;;;8.18;;
48795;SDS011;34607;48.520;-1.330;2022-11-20T05:39:07;12.65;;;8.93;;
48795;SDS011;34607;48.520;-1.330;2022-11-20T05:41:34;10.80;;;9.02;;
48795;SDS011;34607;48.520;-1.330;2022-11-20T05:44:01;10.32;;;8.40;;
48795;SDS011;34607;48.520;-1.330;2022-11-20T05:46:30;10.40;;;8.63;;
48795;SDS011;34607;48.520;-1.330;2022-11-20T05:48:57;11.07;;;8.90;;
48795;SDS011;34607;48.520;-1.330;2022-11-20T05:51:25;10.25;;;8.30;;
48795;SDS011;34607;48.520;-1.330;2022-11-20T05:53:53;11.48;;;8.32;;
48795;SDS011;34607;48.520;-1.330;2022-11-20T05:56:20;9.68;;;8.65;;
48795;SDS011;34607;48.520;-1.330;2022-11-20T05:58:48;9.75;;;7.72;;
48795;SDS011;34607;48.520;-1.330;2022-11-20T06:01:16;9.20;;;8.18;;
48795;SDS011;34607;48.520;-1.330;2022-11-20T06:03:46;10.95;;;7.25;;
48795;SDS011;34607;48.520;-1.330;2022-11-20T06:06:15;10.00;;;6.82;;
48795;SDS011;34607;48.520;-1.330;2022-11-20T06:08:43;7.15;;;6.43;;
48795;SDS011;34607;48.520;-1.330;2022-11-20T06:11:11;10.20;;;6.47;;
48795;SDS011;34607;48.520;-1.330;2022-11-20T06:13:39;7.07;;;6.43;;
48795;SDS011;34607;48.520;-1.330;2022-11-20T06:16:07;7.03;;;6.32;;
48795;SDS011;34607;48.520;-1.330;2022-11-20T06:18:34;7.35;;;5.78;;
48795;SDS011;34607;48.520;-1.330;2022-11-20T06:21:03;8.48;;;6.13;;
48795;SDS011;34607;48.520;-1.330;2022-11-20T06:23:32;7.13;;;5.38;;
48795;SDS011;34607;48.520;-1.330;2022-11-20T06:26:03;8.32;;;5.70;;
48795;SDS011;34607;48.520;-1.330;2022-11-20T06:28:32;6.45;;;4.80;;
48795;SDS011;34607;48.520;-1.330;2022-11-20T06:30:59;5.57;;;5.07;;
48795;SDS011;34607;48.520;-1.330;2022-11-20T06:33:27;5.40;;;4.88;;
48795;SDS011;34607;48.520;-1.330;2022-11-20T06:35:55;4.93;;;4.43;;
48795;SDS011;34607;48.520;-1.330;2022-11-20T06:38:25;4.70;;;4.30;;
48795;SDS011;34607;48.520;-1.330;2022-11-20T06:40:52;4.80;;;4.07;;
48795;SDS011;34607;48.520;-1.330;2022-11-20T06:43:19;4.95;;;3.60;;
48795;SDS011;34607;48.520;-1.330;2022-11-20T06:45:51;4.20;;;3.47;;
48795;SDS011;34607;48.520;-1.330;2022-11-20T06:48:18;3.90;;;3.50;;
48795;SDS011;34607;48.520;-1.330;2022-11-20T06:50:45;3.88;;;3.25;;
48795;SDS011;34607;48.520;-1.330;2022-11-20T06:53:12;3.50;;;2.97;;
48795;SDS011;34607;48.520;-1.330;2022-11-20T06:55:43;4.32;;;3.15;;
48795;SDS011;34607;48.520;-1.330;2022-11-20T06:58:12;3.20;;;2.90;;
48795;SDS011;34607;48.520;-1.330;2022-11-20T07:00:39;3.45;;;3.00;;
48795;SDS011;34607;48.520;-1.330;2022-11-20T07:03:06;4.60;;;3.83;;
48795;SDS011;34607;48.520;-1.330;2022-11-20T07:05:35;3.10;;;2.80;;
48795;SDS011;34607;48.520;-1.330;2022-11-20T07:08:03;3.50;;;3.20;;
48795;SDS011;34607;48.520;-1.330;2022-11-20T07:10:31;5.22;;;2.92;;
48795;SDS011;34607;48.520;-1.330;2022-11-20T07:13:00;3.35;;;3.08;;
48795;SDS011;34607;48.520;-1.330;2022-11-20T07:15:27;3.63;;;3.25;;
48795;SDS011;34607;48.520;-1.330;2022-11-20T07:17:54;5.25;;;3.10;;
48795;SDS011;34607;48.520;-1.330;2022-11-20T07:20:22;5.22;;;3.13;;
48795;SDS011;34607;48.520;-1.330;2022-11-20T07:22:52;3.40;;;3.10;;
48795;SDS011;34607;48.520;-1.330;2022-11-20T07:25:20;3.10;;;2.80;;
48795;SDS011;34607;48.520;-1.330;2022-11-20T07:27:47;5.93;;;3.42;;
48795;SDS011;34607;48.520;-1.330;2022-11-20T07:30:16;3.42;;;3.13;;
48795;SDS011;34607;48.520;-1.330;2022-11-20T07:32:45;4.32;;;3.10;;
48795;SDS011;34607;48.520;-1.330;2022-11-20T07:35:13;5.03;;;3.28;;
48795;SDS011;34607;48.520;-1.330;2022-11-20T07:37:40;4.30;;;3.05;;
48795;SDS011;34607;48.520;-1.330;2022-11-20T07:40:08;7.53;;;3.35;;
48795;SDS011;34607;48.520;-1.330;2022-11-20T07:42:36;5.15;;;3.05;;
48795;SDS011;34607;48.520;-1.330;2022-11-20T07:45:03;4.80;;;2.50;;
48795;SDS011;34607;48.520;-1.330;2022-11-20T07:47:35;4.43;;;2.65;;
48795;SDS011;34607;48.520;-1.330;2022-11-20T07:50:03;6.93;;;2.85;;
48795;SDS011;34607;48.520;-1.330;2022-11-20T07:52:30;5.30;;;3.25;;
48795;SDS011;34607;48.520;-1.330;2022-11-20T07:54:57;3.00;;;2.70;;
48795;SDS011;34607;48.520;-1.330;2022-11-20T07:57:25;3.15;;;2.83;;
48795;SDS011;34607;48.520;-1.330;2022-11-20T07:59:52;7.03;;;3.92;;
48795;SDS011;34607;48.520;-1.330;2022-11-20T08:02:19;6.40;;;3.10;;
48795;SDS011;34607;48.520;-1.330;2022-11-20T08:04:47;3.95;;;2.60;;
48795;SDS011;34607;48.520;-1.330;2022-11-20T08:07:14;4.93;;;2.15;;
48795;SDS011;34607;48.520;-1.330;2022-11-20T08:09:41;3.55;;;2.75;;
48795;SDS011;34607;48.520;-1.330;2022-11-20T08:12:08;3.95;;;2.70;;
48795;SDS011;34607;48.520;-1.330;2022-11-20T08:15:01;5.65;;;2.50;;
48795;SDS011;34607;48.520;-1.330;2022-11-20T08:17:28;2.95;;;2.70;;
48795;SDS011;34607;48.520;-1.330;2022-11-20T08:19:57;4.82;;;3.00;;
48795;SDS011;34607;48.520;-1.330;2022-11-20T08:22:24;4.82;;;3.40;;
48795;SDS011;34607;48.520;-1.330;2022-11-20T08:24:51;4.78;;;2.83;;
48795;SDS011;34607;48.520;-1.330;2022-11-20T08:27:18;2.78;;;2.50;;
48795;SDS011;34607;48.520;-1.330;2022-11-20T08:29:45;4.07;;;2.78;;
48795;SDS011;34607;48.520;-1.330;2022-11-20T08:32:12;6.85;;;3.35;;
48795;SDS011;34607;48.520;-1.330;2022-11-20T08:34:39;7.05;;;3.15;;
48795;SDS011;34607;48.520;-1.330;2022-11-20T08:37:07;6.38;;;2.78;;
48795;SDS011;34607;48.520;-1.330;2022-11-20T08:39:34;6.57;;;2.60;;
48795;SDS011;34607;48.520;-1.330;2022-11-20T08:42:01;6.88;;;2.70;;
48795;SDS011;34607;48.520;-1.330;2022-11-20T08:44:29;16.70;;;3.35;;
48795;SDS011;34607;48.520;-1.330;2022-11-20T08:46:56;5.80;;;2.33;;
48795;SDS011;34607;48.520;-1.330;2022-11-20T08:49:23;8.20;;;3.65;;
48795;SDS011;34607;48.520;-1.330;2022-11-20T08:51:50;13.15;;;3.25;;
48795;SDS011;34607;48.520;-1.330;2022-11-20T08:54:21;6.28;;;2.35;;
48795;SDS011;34607;48.520;-1.330;2022-11-20T08:56:48;7.72;;;2.75;;
48795;SDS011;34607;48.520;-1.330;2022-11-20T08:59:15;9.68;;;2.67;;
48795;SDS011;34607;48.520;-1.330;2022-11-20T09:01:42;15.05;;;3.13;;
48795;SDS011;34607;48.520;-1.330;2022-11-20T09:04:09;8.63;;;3.20;;
48795;SDS011;34607;48.520;-1.330;2022-11-20T09:06:37;7.50;;;2.30;;
48795;SDS011;34607;48.520;-1.330;2022-11-20T09:09:04;11.15;;;3.13;;
48795;SDS011;34607;48.520;-1.330;2022-11-20T09:11:33;8.55;;;2.63;;
48795;SDS011;34607;48.520;-1.330;2022-11-20T09:14:01;10.45;;;3.33;;
48795;SDS011;34607;48.520;-1.330;2022-11-20T09:16:28;9.15;;;3.15;;
48795;SDS011;34607;48.520;-1.330;2022-11-20T09:18:55;9.43;;;2.88;;
48795;SDS011;34607;48.520;-1.330;2022-11-20T09:21:22;16.55;;;3.75;;
48795;SDS011;34607;48.520;-1.330;2022-11-20T09:23:49;13.70;;;3.05;;
48795;SDS011;34607;48.520;-1.330;2022-11-20T09:26:16;13.13;;;3.63;;
48795;SDS011;34607;48.520;-1.330;2022-11-20T09:28:46;12.18;;;3.17;;
48795;SDS011;34607;48.520;-1.330;2022-11-20T09:31:16;9.68;;;2.67;;
48795;SDS011;34607;48.520;-1.330;2022-11-20T09:33:48;10.93;;;3.65;;
48795;SDS011;34607;48.520;-1.330;2022-11-20T09:36:15;15.57;;;3.33;;
48795;SDS011;34607;48.520;-1.330;2022-11-20T09:38:43;17.50;;;4.03;;
48795;SDS011;34607;48.520;-1.330;2022-11-20T09:41:16;16.13;;;3.67;;
48795;SDS011;34607;48.520;-1.330;2022-11-20T09:46:28;12.35;;;3.97;;
48795;SDS011;34607;48.520;-1.330;2022-11-20T09:49:12;11.80;;;3.40;;
48795;SDS011;34607;48.520;-1.330;2022-11-20T09:51:51;19.95;;;4.95;;
48795;SDS011;34607;48.520;-1.330;2022-11-20T09:54:25;17.05;;;3.83;;
48795;SDS011;34607;48.520;-1.330;2022-11-20T09:56:56;16.15;;;4.10;;
48795;SDS011;34607;48.520;-1.330;2022-11-20T09:59:33;18.90;;;4.55;;
48795;SDS011;34607;48.520;-1.330;2022-11-20T10:02:14;21.60;;;4.60;;
48795;SDS011;34607;48.520;-1.330;2022-11-20T10:04:45;16.50;;;3.72;;
48795;SDS011;34607;48.520;-1.330;2022-11-20T10:07:19;22.95;;;4.10;;
48795;SDS011;34607;48.520;-1.330;2022-11-20T10:09:51;21.40;;;4.75;;
48795;SDS011;34607;48.520;-1.330;2022-11-20T10:12:23;23.17;;;4.50;;
48795;SDS011;34607;48.520;-1.330;2022-11-20T10:15:03;31.00;;;5.30;;
48795;SDS011;34607;48.520;-1.330;2022-11-20T10:20:39;20.20;;;3.88;;
48795;SDS011;34607;48.520;-1.330;2022-11-20T10:26:16;20.42;;;4.47;;
48795;SDS011;34607;48.520;-1.330;2022-11-20T10:28:48;24.85;;;4.65;;
48795;SDS011;34607;48.520;-1.330;2022-11-20T10:31:28;19.90;;;4.07;;
48795;SDS011;34607;48.520;-1.330;2022-11-20T10:36:27;16.23;;;4.35;;
48795;SDS011;34607;48.520;-1.330;2022-11-20T10:39:01;14.93;;;3.63;;
48795;SDS011;34607;48.520;-1.330;2022-11-20T10:41:35;13.30;;;3.38;;
48795;SDS011;34607;48.520;-1.330;2022-11-20T10:44:09;17.27;;;3.40;;
48795;SDS011;34607;48.520;-1.330;2022-11-20T10:46:43;23.23;;;4.63;;
48795;SDS011;34607;48.520;-1.330;2022-11-20T10:49:12;22.65;;;4.72;;
48795;SDS011;34607;48.520;-1.330;2022-11-20T10:51:44;22.95;;;4.15;;
48795;SDS011;34607;48.520;-1.330;2022-11-20T10:54:27;23.40;;;5.43;;
48795;SDS011;34607;48.520;-1.330;2022-11-20T10:57:04;18.92;;;4.60;;
48795;SDS011;34607;48.520;-1.330;2022-11-20T10:59:47;19.17;;;4.30;;
48795;SDS011;34607;48.520;-1.330;2022-11-20T11:02:32;20.20;;;4.13;;
48795;SDS011;34607;48.520;-1.330;2022-11-20T11:05:17;26.42;;;5.10;;
48795;SDS011;34607;48.520;-1.330;2022-11-20T11:07:51;33.88;;;5.90;;
48795;SDS011;34607;48.520;-1.330;2022-11-20T11:10:21;24.67;;;7.47;;
48795;SDS011;34607;48.520;-1.330;2022-11-20T11:12:52;28.63;;;6.53;;
48795;SDS011;34607;48.520;-1.330;2022-11-20T11:15:26;34.17;;;6.82;;
48795;SDS011;34607;48.520;-1.330;2022-11-20T11:17:56;52.63;;;30.17;;
48795;SDS011;34607;48.520;-1.330;2022-11-20T11:20:24;25.15;;;8.82;;
48795;SDS011;34607;48.520;-1.330;2022-11-20T11:22:53;28.95;;;6.88;;
48795;SDS011;34607;48.520;-1.330;2022-11-20T11:25:23;18.88;;;5.57;;
48795;SDS011;34607;48.520;-1.330;2022-11-20T11:27:52;27.23;;;5.32;;
48795;SDS011;34607;48.520;-1.330;2022-11-20T11:30:22;20.80;;;4.75;;
48795;SDS011;34607;48.520;-1.330;2022-11-20T11:32:49;16.10;;;3.30;;
48795;SDS011;34607;48.520;-1.330;2022-11-20T11:35:25;20.95;;;3.60;;
48795;SDS011;34607;48.520;-1.330;2022-11-20T11:38:01;21.05;;;4.70;;
48795;SDS011;34607;48.520;-1.330;2022-11-20T11:40:31;20.55;;;3.95;;
48795;SDS011;34607;48.520;-1.330;2022-11-20T11:42:59;16.80;;;3.78;;
48795;SDS011;34607;48.520;-1.330;2022-11-20T11:45:28;18.35;;;4.60;;
48795;SDS011;34607;48.520;-1.330;2022-11-20T11:47:55;13.90;;;3.83;;
48795;SDS011;34607;48.520;-1.330;2022-11-20T11:50:25;20.77;;;4.28;;
48795;SDS011;34607;48.520;-1.330;2022-11-20T11:52:58;30.48;;;6.78;;
48795;SDS011;34607;48.520;-1.330;2022-11-20T11:55:35;24.98;;;5.60;;
48795;SDS011;34607;48.520;-1.330;2022-11-20T11:58:09;23.60;;;5.75;;
48795;SDS011;34607;48.520;-1.330;2022-11-20T12:00:45;29.63;;;5.47;;
48795;SDS011;34607;48.520;-1.330;2022-11-20T12:03:21;21.20;;;5.47;;
48795;SDS011;34607;48.520;-1.330;2022-11-20T12:05:55;25.63;;;6.13;;
48795;SDS011;34607;48.520;-1.330;2022-11-20T12:08:27;24.73;;;5.13;;
48795;SDS011;34607;48.520;-1.330;2022-11-20T12:11:00;18.85;;;4.57;;
48795;SDS011;34607;48.520;-1.330;2022-11-20T12:13:36;23.00;;;4.50;;
48795;SDS011;34607;48.520;-1.330;2022-11-20T12:16:11;19.08;;;4.43;;
48795;SDS011;34607;48.520;-1.330;2022-11-20T12:18:40;18.90;;;4.30;;
48795;SDS011;34607;48.520;-1.330;2022-11-20T12:21:17;19.33;;;4.22;;
48795;SDS011;34607;48.520;-1.330;2022-11-20T12:23:56;16.75;;;4.47;;
48795;SDS011;34607;48.520;-1.330;2022-11-20T12:26:37;19.50;;;4.63;;
48795;SDS011;34607;48.520;-1.330;2022-11-20T12:29:16;18.08;;;4.47;;
48795;SDS011;34607;48.520;-1.330;2022-11-20T12:32:04;22.50;;;5.45;;
48795;SDS011;34607;48.520;-1.330;2022-11-20T12:34:52;26.23;;;5.93;;
48795;SDS011;34607;48.520;-1.330;2022-11-20T12:37:33;21.17;;;4.78;;
48795;SDS011;34607;48.520;-1.330;2022-11-20T12:40:11;26.75;;;5.65;;
48795;SDS011;34607;48.520;-1.330;2022-11-20T12:42:50;22.30;;;5.20;;
48795;SDS011;34607;48.520;-1.330;2022-11-20T12:46:03;23.70;;;5.18;;
48795;SDS011;34607;48.520;-1.330;2022-11-20T12:48:41;26.30;;;6.25;;
48795;SDS011;34607;48.520;-1.330;2022-11-20T12:51:33;24.77;;;5.55;;
48795;SDS011;34607;48.520;-1.330;2022-11-20T12:54:14;30.45;;;6.10;;
48795;SDS011;34607;48.520;-1.330;2022-11-20T12:57:19;27.48;;;5.70;;
48795;SDS011;34607;48.520;-1.330;2022-11-20T12:59:55;23.70;;;6.10;;
48795;SDS011;34607;48.520;-1.330;2022-11-20T13:02:30;22.40;;;6.82;;
48795;SDS011;34607;48.520;-1.330;2022-11-20T13:05:15;19.98;;;7.63;;
48795;SDS011;34607;48.520;-1.330;2022-11-20T13:07:46;18.60;;;5.03;;
48795;SDS011;34607;48.520;-1.330;2022-11-20T13:10:20;20.27;;;5.45;;
48795;SDS011;34607;48.520;-1.330;2022-11-20T13:12:54;24.20;;;6.13;;
48795;SDS011;34607;48.520;-1.330;2022-11-20T13:15:31;21.50;;;4.40;;
48795;SDS011;34607;48.520;-1.330;2022-11-20T13:18:08;20.63;;;4.40;;
48795;SDS011;34607;48.520;-1.330;2022-11-20T13:20:40;21.10;;;5.43;;
48795;SDS011;34607;48.520;-1.330;2022-11-20T13:23:09;17.65;;;4.63;;
48795;SDS011;34607;48.520;-1.330;2022-11-20T13:25:38;17.23;;;4.75;;
48795;SDS011;34607;48.520;-1.330;2022-11-20T13:30:55;22.45;;;5.15;;
48795;SDS011;34607;48.520;-1.330;2022-11-20T13:33:25;28.02;;;4.70;;
48795;SDS011;34607;48.520;-1.330;2022-11-20T13:35:56;19.23;;;4.60;;
48795;SDS011;34607;48.520;-1.330;2022-11-20T13:38:24;23.52;;;4.53;;
48795;SDS011;34607;48.520;-1.330;2022-11-20T13:40:53;22.77;;;4.68;;
48795;SDS011;34607;48.520;-1.330;2022-11-20T13:43:23;25.13;;;5.00;;
48795;SDS011;34607;48.520;-1.330;2022-11-20T13:45:56;18.33;;;6.80;;
48795;SDS011;34607;48.520;-1.330;2022-11-20T13:48:26;21.70;;;8.93;;
48795;SDS011;34607;48.520;-1.330;2022-11-20T13:53:55;21.50;;;4.40;;
48795;SDS011;34607;48.520;-1.330;2022-11-20T13:56:34;13.95;;;3.15;;
48795;SDS011;34607;48.520;-1.330;2022-11-20T13:59:12;17.98;;;4.63;;
48795;SDS011;34607;48.520;-1.330;2022-11-20T14:01:53;28.52;;;5.15;;
48795;SDS011;34607;48.520;-1.330;2022-11-20T14:04:25;15.07;;;3.83;;
48795;SDS011;34607;48.520;-1.330;2022-11-20T14:06:55;16.38;;;4.57;;
48795;SDS011;34607;48.520;-1.330;2022-11-20T14:09:27;25.45;;;5.18;;
48795;SDS011;34607;48.520;-1.330;2022-11-20T14:11:57;16.45;;;4.72;;
48795;SDS011;34607;48.520;-1.330;2022-11-20T14:14:24;24.25;;;5.60;;
48795;SDS011;34607;48.520;-1.330;2022-11-20T14:16:53;25.45;;;6.90;;
48795;SDS011;34607;48.520;-1.330;2022-11-20T14:19:31;18.63;;;5.43;;
48795;SDS011;34607;48.520;-1.330;2022-11-20T14:22:10;19.58;;;7.85;;
48795;SDS011;34607;48.520;-1.330;2022-11-20T14:27:16;25.83;;;6.93;;
48795;SDS011;34607;48.520;-1.330;2022-11-20T14:29:46;18.27;;;6.97;;
48795;SDS011;34607;48.520;-1.330;2022-11-20T14:32:16;21.63;;;4.80;;
48795;SDS011;34607;48.520;-1.330;2022-11-20T14:34:45;17.77;;;4.20;;
48795;SDS011;34607;48.520;-1.330;2022-11-20T14:37:17;19.05;;;4.68;;
48795;SDS011;34607;48.520;-1.330;2022-11-20T14:39:48;20.38;;;5.85;;
48795;SDS011;34607;48.520;-1.330;2022-11-20T14:42:20;22.33;;;4.88;;
48795;SDS011;34607;48.520;-1.330;2022-11-20T14:44:49;18.50;;;6.22;;
48795;SDS011;34607;48.520;-1.330;2022-11-20T14:47:18;15.93;;;3.85;;
48795;SDS011;34607;48.520;-1.330;2022-11-20T14:49:48;17.38;;;5.07;;
48795;SDS011;34607;48.520;-1.330;2022-11-20T14:52:17;17.02;;;4.28;;
48795;SDS011;34607;48.520;-1.330;2022-11-20T14:54:46;20.65;;;4.25;;
48795;SDS011;34607;48.520;-1.330;2022-11-20T14:57:23;18.27;;;4.45;;
48795;SDS011;34607;48.520;-1.330;2022-11-20T15:00:03;22.42;;;5.22;;
48795;SDS011;34607;48.520;-1.330;2022-11-20T15:02:33;14.75;;;3.72;;
48795;SDS011;34607;48.520;-1.330;2022-11-20T15:05:01;17.52;;;3.35;;